createdAt,value
2018-07-03T00:00:25.324Z,2.00
2018-07-03T00:02:53.199Z,1.80
2018-07-03T00:05:21.175Z,1.80
2018-07-03T00:07:49.031Z,2.00
2018-07-03T00:10:16.846Z,2.03
2018-07-03T00:12:44.643Z,1.80
2018-07-03T00:15:12.475Z,1.90
2018-07-03T00:17:40.445Z,2.03
2018-07-03T00:20:08.615Z,1.90
2018-07-03T00:22:36.587Z,2.03
2018-07-03T00:25:04.754Z,1.90
2018-07-03T00:27:32.751Z,1.90
2018-07-03T00:30:00.548Z,1.87
2018-07-03T00:32:28.419Z,2.20
2018-07-03T00:34:56.283Z,2.20
2018-07-03T00:37:24.067Z,1.90
2018-07-03T00:39:51.970Z,2.03
2018-07-03T00:42:19.750Z,2.20
2018-07-03T00:44:47.568Z,1.90
2018-07-03T00:47:15.344Z,1.90
2018-07-03T00:49:43.155Z,2.00
2018-07-03T00:52:11.009Z,1.87
2018-07-03T00:54:38.843Z,2.10
2018-07-03T00:57:06.640Z,2.00
2018-07-03T00:59:36.332Z,1.80
2018-07-03T01:02:04.115Z,1.73
2018-07-03T01:04:32.187Z,2.00
2018-07-03T01:06:59.985Z,1.90
2018-07-03T01:09:28.126Z,2.03
2018-07-03T01:11:55.935Z,1.90
2018-07-03T01:14:23.991Z,2.00
2018-07-03T01:16:51.831Z,2.20
2018-07-03T01:19:19.720Z,1.90
2018-07-03T01:21:47.524Z,1.90
2018-07-03T01:24:15.318Z,1.80
2018-07-03T01:26:43.103Z,1.83
2018-07-03T01:29:11.359Z,2.10
2018-07-03T01:31:39.331Z,1.90
2018-07-03T01:34:07.139Z,1.97
2018-07-03T01:36:34.939Z,1.90
2018-07-03T01:39:03.627Z,1.90
2018-07-03T01:41:31.451Z,1.90
2018-07-03T01:43:59.232Z,1.80
2018-07-03T01:46:27.095Z,1.90
2018-07-03T01:48:55.051Z,2.07
2018-07-03T01:51:22.851Z,2.00
2018-07-03T01:53:50.967Z,1.90
2018-07-03T01:56:18.795Z,1.87
2018-07-03T01:58:46.583Z,1.90
2018-07-03T02:01:14.435Z,1.83
2018-07-03T02:03:42.210Z,2.20
2018-07-03T02:06:10.683Z,1.80
2018-07-03T02:08:38.592Z,1.93
2018-07-03T02:11:06.560Z,2.03
2018-07-03T02:13:34.359Z,1.87
2018-07-03T02:16:02.291Z,1.77
2018-07-03T02:18:30.346Z,1.80
2018-07-03T02:20:58.128Z,1.70
2018-07-03T02:23:25.940Z,1.80
2018-07-03T02:25:54.569Z,1.83
2018-07-03T02:28:22.618Z,1.70
2018-07-03T02:30:50.678Z,1.80
2018-07-03T02:33:18.531Z,1.87
2018-07-03T02:35:46.404Z,1.83
2018-07-03T02:38:14.299Z,1.77
2018-07-03T02:40:42.535Z,1.90
2018-07-03T02:43:10.391Z,1.90
2018-07-03T02:45:38.200Z,1.80
2018-07-03T02:48:06.000Z,1.87
2018-07-03T02:50:34.511Z,1.70
2018-07-03T02:53:02.309Z,1.90
2018-07-03T02:55:30.371Z,1.80
2018-07-03T02:57:58.158Z,1.80
2018-07-03T03:00:26.003Z,1.93
2018-07-03T03:02:53.955Z,1.77
2018-07-03T03:05:21.775Z,1.90
2018-07-03T03:07:49.872Z,1.87
2018-07-03T03:10:17.701Z,2.10
2018-07-03T03:12:45.654Z,1.63
2018-07-03T03:15:13.451Z,1.83
2018-07-03T03:17:41.243Z,1.73
2018-07-03T03:20:09.032Z,1.80
2018-07-03T03:22:36.896Z,1.67
2018-07-03T03:25:05.235Z,135.67
2018-07-03T03:27:33.123Z,1.90
2018-07-03T03:30:01.999Z,1.60
2018-07-03T03:32:29.827Z,5.27
2018-07-03T03:34:57.638Z,2.13
2018-07-03T03:37:25.424Z,1.87
2018-07-03T03:39:53.563Z,2.00
2018-07-03T03:42:21.368Z,3.70
2018-07-03T03:44:49.165Z,4.77
2018-07-03T03:47:17.136Z,4.27
2018-07-03T03:49:44.948Z,5.20
2018-07-03T03:52:13.263Z,6.13
2018-07-03T03:54:41.141Z,5.30
2018-07-03T03:57:09.052Z,6.77
2018-07-03T03:59:36.875Z,4.67
2018-07-03T04:02:04.676Z,5.00
2018-07-03T04:04:32.607Z,5.07
2018-07-03T04:07:00.595Z,4.00
2018-07-03T04:09:28.448Z,4.50
2018-07-03T04:11:56.295Z,2.63
2018-07-03T04:14:24.172Z,1.80
2018-07-03T04:16:53.225Z,2.00
2018-07-03T04:19:21.001Z,1.60
2018-07-03T04:21:49.810Z,4.10
2018-07-03T04:24:17.596Z,3.50
2018-07-03T04:26:45.454Z,2.23
2018-07-03T04:29:13.270Z,3.97
2018-07-03T04:31:41.079Z,2.10
2018-07-03T04:34:08.912Z,2.30
2018-07-03T04:36:36.676Z,2.40
2018-07-03T04:39:06.464Z,3.80
2018-07-03T04:41:34.312Z,2.53
2018-07-03T04:44:02.511Z,2.23
2018-07-03T04:46:30.371Z,2.50
2018-07-03T04:48:58.383Z,2.60
2018-07-03T04:51:26.372Z,2.47
2018-07-03T04:53:54.179Z,2.40
2018-07-03T04:56:21.979Z,2.70
2018-07-03T04:58:49.787Z,2.90
2018-07-03T05:01:17.615Z,2.80
2018-07-03T05:03:45.416Z,2.60
2018-07-03T05:06:13.226Z,3.23
2018-07-03T05:08:41.999Z,3.30
2018-07-03T05:11:09.878Z,3.20
2018-07-03T05:13:37.654Z,3.07
2018-07-03T05:16:05.516Z,3.43
2018-07-03T05:18:33.344Z,2.63
2018-07-03T05:21:01.146Z,2.50
2018-07-03T05:23:28.939Z,2.77
2018-07-03T05:25:56.787Z,2.97
2018-07-03T05:28:24.587Z,2.60
2018-07-03T05:30:52.631Z,2.57
2018-07-03T05:33:20.571Z,2.87
2018-07-03T05:35:48.427Z,2.67
2018-07-03T05:38:16.235Z,2.70
2018-07-03T05:40:44.082Z,3.10
2018-07-03T05:43:11.915Z,2.70
2018-07-03T05:45:40.159Z,2.50
2018-07-03T05:48:08.147Z,2.90
2018-07-03T05:50:36.198Z,2.80
2018-07-03T05:53:04.308Z,2.80
2018-07-03T05:55:32.117Z,3.00
2018-07-03T05:58:00.123Z,2.97
2018-07-03T06:00:27.931Z,2.90
2018-07-03T06:02:55.979Z,3.07
2018-07-03T06:05:23.783Z,2.60
2018-07-03T06:07:52.149Z,3.10
2018-07-03T06:10:20.087Z,3.10
2018-07-03T06:12:47.932Z,3.00
2018-07-03T06:15:16.087Z,3.43
2018-07-03T06:17:44.067Z,2.73
2018-07-03T06:20:12.602Z,2.63
2018-07-03T06:22:40.675Z,2.40
2018-07-03T06:25:08.475Z,2.60
2018-07-03T06:27:36.338Z,2.87
2018-07-03T06:30:04.459Z,2.97
2018-07-03T06:32:32.302Z,3.17
2018-07-03T06:35:00.419Z,2.70
2018-07-03T06:37:28.376Z,2.87
2018-07-03T06:39:55.942Z,3.00
2018-07-03T06:42:24.089Z,2.67
2018-07-03T06:44:51.892Z,2.90
2018-07-03T06:47:19.860Z,2.70
2018-07-03T06:49:47.731Z,2.70
2018-07-03T06:52:15.573Z,2.70
2018-07-03T06:54:43.423Z,2.93
2018-07-03T06:57:11.207Z,2.57
2018-07-03T06:59:39.039Z,2.80
2018-07-03T07:02:07.091Z,2.50
2018-07-03T07:04:35.211Z,2.43
2018-07-03T07:07:03.077Z,2.57
2018-07-03T07:09:31.086Z,2.40
2018-07-03T07:11:58.947Z,2.67
2018-07-03T07:14:26.828Z,2.50
2018-07-03T07:16:54.796Z,2.63
2018-07-03T07:19:22.752Z,2.30
2018-07-03T07:21:50.627Z,2.50
2018-07-03T07:24:18.471Z,2.57
2018-07-03T07:26:46.378Z,2.27
2018-07-03T07:29:14.599Z,2.40
2018-07-03T07:31:42.576Z,2.50
2018-07-03T07:34:10.433Z,2.57
2018-07-03T07:36:38.272Z,2.33
2018-07-03T07:39:07.183Z,2.63
2018-07-03T07:41:35.421Z,2.20
2018-07-03T07:44:03.820Z,2.40
2018-07-03T07:46:31.806Z,3.13
2018-07-03T07:48:59.757Z,2.40
2018-07-03T07:51:27.568Z,2.30
2018-07-03T07:53:55.451Z,2.17
2018-07-03T07:56:24.345Z,2.20
2018-07-03T07:58:52.280Z,2.40
2018-07-03T08:01:20.231Z,2.60
2018-07-03T08:03:48.159Z,2.63
2018-07-03T08:06:16.014Z,2.30
2018-07-03T08:08:44.109Z,2.10
2018-07-03T08:11:12.072Z,2.20
2018-07-03T08:13:39.895Z,2.57
2018-07-03T08:16:07.760Z,2.00
2018-07-03T08:18:35.619Z,2.30
2018-07-03T08:21:03.506Z,2.40
2018-07-03T08:23:31.310Z,1.90
2018-07-03T08:25:59.150Z,2.20
2018-07-03T08:28:26.950Z,2.20
2018-07-03T08:30:54.898Z,2.10
2018-07-03T08:33:22.916Z,2.20
2018-07-03T08:35:50.932Z,2.20
2018-07-03T08:38:18.792Z,2.10
2018-07-03T08:40:46.720Z,1.97
2018-07-03T08:43:14.584Z,2.20
2018-07-03T08:45:42.450Z,2.03
2018-07-03T08:48:10.292Z,2.07
2018-07-03T08:50:38.364Z,2.40
2018-07-03T08:53:06.326Z,2.10
2018-07-03T08:55:34.231Z,1.90
2018-07-03T08:58:02.070Z,2.00
2018-07-03T09:00:30.037Z,2.10
2018-07-03T09:02:58.335Z,2.00
2018-07-03T09:05:26.148Z,1.90
2018-07-03T09:07:53.987Z,1.97
2018-07-03T09:10:21.813Z,1.83
2018-07-03T09:12:49.697Z,1.90
2018-07-03T09:15:17.530Z,2.00
2018-07-03T09:17:45.573Z,1.90
2018-07-03T09:20:13.425Z,1.90
2018-07-03T09:22:41.326Z,1.80
2018-07-03T09:25:09.148Z,2.00
2018-07-03T09:27:37.094Z,2.13
2018-07-03T09:30:05.871Z,1.90
2018-07-03T09:32:33.702Z,1.83
2018-07-03T09:35:01.531Z,1.60
2018-07-03T09:37:29.511Z,1.70
2018-07-03T09:39:57.408Z,1.67
2018-07-03T09:42:26.165Z,2.03
2018-07-03T09:44:54.000Z,1.63
2018-07-03T09:47:21.824Z,1.60
2018-07-03T09:49:49.643Z,1.33
2018-07-03T09:52:17.521Z,1.70
2018-07-03T09:54:45.425Z,1.43
2018-07-03T09:57:13.184Z,1.77
2018-07-03T09:59:41.089Z,1.53
2018-07-03T10:02:08.882Z,1.50
2018-07-03T10:04:36.740Z,1.70
2018-07-03T10:07:04.795Z,1.60
2018-07-03T10:09:32.659Z,1.73
2018-07-03T10:12:00.520Z,1.80
2018-07-03T10:14:28.391Z,1.73
2018-07-03T10:16:56.228Z,1.73
2018-07-03T10:19:24.049Z,1.60
2018-07-03T10:21:51.939Z,1.20
2018-07-03T10:24:19.944Z,1.50
2018-07-03T10:26:47.984Z,1.40
2018-07-03T10:29:16.828Z,1.50
2018-07-03T10:31:44.672Z,1.43
2018-07-03T10:34:12.691Z,1.40
2018-07-03T10:36:40.863Z,1.80
2018-07-03T10:39:10.207Z,1.50
2018-07-03T10:41:38.059Z,1.50
2018-07-03T10:44:05.945Z,1.80
2018-07-03T10:46:33.774Z,1.63
2018-07-03T10:49:01.797Z,1.67
2018-07-03T10:51:29.650Z,1.57
2018-07-03T10:53:58.294Z,1.80
2018-07-03T10:56:26.172Z,1.40
2018-07-03T10:58:54.087Z,1.70
2018-07-03T11:01:23.587Z,1.60
2018-07-03T11:03:51.715Z,1.60
2018-07-03T11:06:19.571Z,1.70
2018-07-03T11:08:47.406Z,1.70
2018-07-03T11:11:15.444Z,2.10
2018-07-03T11:13:43.524Z,1.50
2018-07-03T11:16:11.328Z,2.10
2018-07-03T11:18:39.164Z,2.10
2018-07-03T11:21:07.251Z,2.33
2018-07-03T11:23:35.078Z,1.90
2018-07-03T11:26:02.884Z,1.90
2018-07-03T11:28:30.778Z,1.90
2018-07-03T11:30:58.664Z,1.80
2018-07-03T11:33:26.515Z,2.30
2018-07-03T11:35:54.635Z,2.23
2018-07-03T11:38:22.431Z,2.20
2018-07-03T11:40:51.215Z,1.80
2018-07-03T11:43:19.065Z,2.20
2018-07-03T11:45:46.807Z,2.07
2018-07-03T11:48:14.844Z,2.40
2018-07-03T11:50:42.659Z,2.40
2018-07-03T11:53:10.672Z,2.83
2018-07-03T11:55:39.196Z,2.97
2018-07-03T11:58:07.267Z,2.90
2018-07-03T12:00:35.936Z,2.80
2018-07-03T12:03:03.747Z,3.00
2018-07-03T12:05:31.571Z,3.00
2018-07-03T12:07:59.358Z,3.10
2018-07-03T12:10:27.276Z,3.40
2018-07-03T12:12:55.069Z,3.57
2018-07-03T12:15:22.895Z,3.47
2018-07-03T12:17:50.716Z,3.40
2018-07-03T12:20:18.634Z,3.60
2018-07-03T12:22:46.698Z,3.33
2018-07-03T12:25:14.623Z,3.37
2018-07-03T12:27:42.410Z,3.30
2018-07-03T12:30:11.865Z,3.30
2018-07-03T12:32:39.894Z,3.17
2018-07-03T12:35:08.394Z,3.10
2018-07-03T12:37:36.312Z,3.60
2018-07-03T12:40:04.323Z,3.57
2018-07-03T12:42:32.145Z,3.53
2018-07-03T12:45:00.113Z,3.60
2018-07-03T12:47:28.016Z,3.40
2018-07-03T12:49:55.871Z,3.50
2018-07-03T12:52:23.799Z,3.60
2018-07-03T12:54:51.715Z,3.87
2018-07-03T12:57:19.900Z,3.87
2018-07-03T12:59:47.599Z,3.77
2018-07-03T13:02:15.622Z,3.60
2018-07-03T13:04:44.462Z,3.50
2018-07-03T13:07:12.266Z,3.90
2018-07-03T13:09:40.048Z,3.37
2018-07-03T13:12:07.876Z,3.87
2018-07-03T13:14:35.702Z,4.07
2018-07-03T13:17:03.584Z,3.90
2018-07-03T13:19:31.403Z,4.10
2018-07-03T13:21:59.253Z,4.80
2018-07-03T13:24:27.096Z,4.30
2018-07-03T13:26:55.151Z,4.10
2018-07-03T13:29:23.051Z,3.47
2018-07-03T13:31:50.821Z,4.40
2018-07-03T13:34:18.663Z,4.03
2018-07-03T13:36:46.509Z,3.00
2018-07-03T13:39:14.319Z,3.10
2018-07-03T13:41:42.141Z,3.57
2018-07-03T13:44:10.039Z,3.67
2018-07-03T13:46:38.115Z,3.43
2018-07-03T13:49:05.922Z,3.70
2018-07-03T13:51:34.048Z,3.40
2018-07-03T13:54:01.878Z,3.77
2018-07-03T13:56:29.800Z,3.17
2018-07-03T13:58:57.955Z,3.77
2018-07-03T14:01:25.747Z,4.53
2018-07-03T14:03:54.515Z,3.63
2018-07-03T14:06:22.323Z,3.50
2018-07-03T14:08:50.183Z,3.70
2018-07-03T14:11:18.090Z,3.80
2018-07-03T14:13:45.887Z,3.50
2018-07-03T14:16:13.819Z,3.10
2018-07-03T14:18:41.619Z,3.13
2018-07-03T14:21:09.714Z,3.23
2018-07-03T14:23:37.795Z,3.30
2018-07-03T14:26:05.699Z,3.07
2018-07-03T14:28:33.449Z,3.33
2018-07-03T14:31:02.198Z,3.17
2018-07-03T14:33:30.395Z,6.23
2018-07-03T14:35:58.286Z,19.03
2018-07-03T14:38:27.155Z,10.70
2018-07-03T14:40:54.935Z,5.90
2018-07-03T14:43:22.815Z,4.73
2018-07-03T14:45:50.646Z,4.70
2018-07-03T14:48:18.462Z,4.63
2018-07-03T14:50:46.964Z,11.27
2018-07-03T14:53:14.913Z,20.53
2018-07-03T14:55:42.679Z,30.17
2018-07-03T14:58:10.546Z,37.77
2018-07-03T15:00:38.453Z,46.77
2018-07-03T15:03:06.320Z,52.17
2018-07-03T15:05:34.124Z,54.90
2018-07-03T15:08:02.093Z,57.77
2018-07-03T15:10:29.989Z,65.07
2018-07-03T15:12:57.991Z,59.67
2018-07-03T15:15:26.435Z,57.67
2018-07-03T15:17:54.291Z,78.50
2018-07-03T15:20:22.393Z,90.63
2018-07-03T15:23:00.768Z,111.42
2018-07-03T15:25:37.633Z,94.80
2018-07-03T15:28:07.311Z,71.97
2018-07-03T15:33:15.156Z,99.60
2018-07-03T15:35:42.996Z,100.13
2018-07-03T15:38:10.834Z,559.17
2018-07-03T15:40:39.059Z,555.67
2018-07-03T15:43:08.943Z,348.03
2018-07-03T15:45:42.984Z,999.90
2018-07-03T15:48:11.591Z,452.47
2018-07-03T15:50:41.400Z,94.83
2018-07-03T15:53:09.243Z,731.60
2018-07-03T15:55:38.063Z,829.93
2018-07-03T15:58:07.818Z,999.90
2018-07-03T16:00:35.571Z,144.17
2018-07-03T16:03:10.906Z,128.23
2018-07-03T16:05:44.295Z,135.63
2018-07-03T16:08:17.524Z,144.17
2018-07-03T16:10:46.282Z,162.10
2018-07-03T16:13:16.791Z,145.87
2018-07-03T16:15:49.319Z,175.43
2018-07-03T16:18:18.891Z,148.37
2018-07-03T16:20:46.900Z,959.83
2018-07-03T16:23:14.703Z,757.83
2018-07-03T16:25:42.587Z,193.93
2018-07-03T16:28:10.492Z,444.97
2018-07-03T16:30:38.418Z,182.43
2018-07-03T16:33:07.152Z,159.83
2018-07-03T16:35:35.936Z,439.13
2018-07-03T16:38:06.168Z,233.90
2018-07-03T16:40:34.007Z,141.43
2018-07-03T16:43:02.304Z,137.37
2018-07-03T16:45:32.067Z,657.60
2018-07-03T16:48:00.726Z,143.27
2018-07-03T16:50:29.638Z,141.33
2018-07-03T16:52:59.366Z,131.00
2018-07-03T16:55:31.094Z,137.77
2018-07-03T16:57:59.733Z,138.30
2018-07-03T17:00:28.942Z,129.73
2018-07-03T17:02:59.413Z,123.80
2018-07-03T17:05:29.132Z,129.27
2018-07-03T17:07:57.876Z,756.63
2018-07-03T17:10:26.598Z,999.90
2018-07-03T17:12:55.546Z,438.03
2018-07-03T17:15:24.428Z,715.20
2018-07-03T17:17:52.287Z,173.40
2018-07-03T17:20:20.165Z,486.20
2018-07-03T17:22:49.955Z,324.73
2018-07-03T17:25:20.917Z,191.87
2018-07-03T17:27:49.558Z,164.63
2018-07-03T17:30:18.185Z,156.37
2018-07-03T17:32:47.797Z,160.03
2018-07-03T17:35:17.499Z,158.43
2018-07-03T17:37:47.969Z,967.70
2018-07-03T17:40:23.661Z,999.90
2018-07-03T17:42:57.580Z,999.90
2018-07-03T17:45:32.076Z,280.17
2018-07-03T17:48:05.168Z,517.25
2018-07-03T17:50:33.701Z,242.27
2018-07-03T17:53:01.896Z,222.70
2018-07-03T17:55:34.802Z,522.23
2018-07-03T17:58:10.485Z,208.43
2018-07-03T18:00:46.378Z,225.07
2018-07-03T18:03:14.272Z,367.33
2018-07-03T18:05:43.623Z,230.63
2018-07-03T18:08:12.607Z,503.07
2018-07-03T18:10:45.134Z,550.50
2018-07-03T18:13:13.063Z,504.40
2018-07-03T18:15:42.690Z,193.37
2018-07-03T18:18:12.598Z,898.43
2018-07-03T18:20:47.458Z,764.37
2018-07-03T18:23:19.167Z,182.70
2018-07-03T18:25:51.191Z,199.63
2018-07-03T18:28:21.015Z,313.17
2018-07-03T18:30:50.862Z,200.17
2018-07-03T18:33:22.404Z,604.03
2018-07-03T18:35:50.229Z,205.17
2018-07-03T18:38:23.331Z,196.03
2018-07-03T18:40:54.058Z,199.93
2018-07-03T18:43:22.867Z,409.87
2018-07-03T18:45:56.759Z,326.47
2018-07-03T18:48:31.471Z,472.77
2018-07-03T18:51:01.325Z,226.73
2018-07-03T18:53:33.025Z,148.33
2018-07-03T18:56:03.798Z,154.60
2018-07-03T18:58:33.227Z,192.03
2018-07-03T19:01:01.275Z,218.07
2018-07-03T19:03:31.139Z,210.73
2018-07-03T19:06:00.772Z,214.43
2018-07-03T19:08:30.295Z,223.97
2018-07-03T19:11:00.652Z,249.60
2018-07-03T19:13:32.659Z,225.60
2018-07-03T19:16:01.385Z,221.90
2018-07-03T19:18:30.159Z,220.77
2018-07-03T19:21:02.038Z,208.20
2018-07-03T19:23:33.781Z,228.67
2018-07-03T19:26:01.736Z,231.10
2018-07-03T19:28:30.565Z,237.07
2018-07-03T19:30:59.317Z,228.23
2018-07-03T19:33:27.284Z,238.53
2018-07-03T19:35:59.185Z,252.43
2018-07-03T19:38:28.969Z,247.90
2018-07-03T19:40:56.943Z,247.73
2018-07-03T19:43:27.703Z,242.13
2018-07-03T19:45:57.299Z,237.63
2018-07-03T19:48:25.230Z,999.90
2018-07-03T19:50:54.174Z,462.03
2018-07-03T19:53:23.913Z,274.77
2018-07-03T19:55:52.926Z,576.00
2018-07-03T19:58:22.137Z,834.73
2018-07-03T20:00:51.186Z,318.60
2018-07-03T20:03:21.831Z,282.27
2018-07-03T20:05:49.816Z,819.20
2018-07-03T20:08:17.665Z,290.63
2018-07-03T20:10:46.490Z,263.33
2018-07-03T20:13:16.384Z,262.47
2018-07-03T20:15:45.579Z,254.90
2018-07-03T20:18:17.963Z,70.30
2018-07-03T20:20:50.710Z,361.43
2018-07-03T20:23:20.627Z,410.80
2018-07-03T20:25:52.380Z,737.77
2018-07-03T20:28:21.138Z,328.60
2018-07-03T20:30:56.610Z,304.27
2018-07-03T20:33:26.377Z,267.70
2018-07-03T20:35:57.140Z,281.47
2018-07-03T20:38:31.824Z,290.33
2018-07-03T20:41:02.691Z,293.00
2018-07-03T20:43:31.915Z,283.20
2018-07-03T20:45:59.886Z,922.10
2018-07-03T20:48:28.107Z,337.60
2018-07-03T20:50:57.431Z,142.27
2018-07-03T20:53:26.344Z,4.53
2018-07-03T20:55:54.221Z,4.43
2018-07-03T20:58:22.415Z,306.20
2018-07-03T21:00:50.186Z,300.87
2018-07-03T21:03:18.822Z,999.90
2018-07-03T21:05:50.508Z,972.57
2018-07-03T21:08:22.928Z,912.20
2018-07-03T21:10:57.585Z,431.73
2018-07-03T21:13:25.575Z,934.40
2018-07-03T21:15:57.371Z,356.53
2018-07-03T21:18:25.335Z,335.63
2018-07-03T21:20:54.939Z,313.87
2018-07-03T21:23:27.678Z,316.10
2018-07-03T21:25:55.569Z,314.87
2018-07-03T21:28:24.416Z,184.13
2018-07-03T21:30:57.324Z,5.67
2018-07-03T21:33:26.684Z,5.03
2018-07-03T21:35:54.530Z,4.53
2018-07-03T21:38:26.084Z,4.70
2018-07-03T21:40:53.919Z,24.90
2018-07-03T21:43:23.390Z,303.07
2018-07-03T21:45:52.123Z,584.43
2018-07-03T21:48:23.760Z,574.83
2018-07-03T21:50:51.640Z,166.83
2018-07-03T21:53:19.433Z,240.37
2018-07-03T21:55:47.275Z,4.60
2018-07-03T21:58:15.068Z,4.87
2018-07-03T22:00:42.940Z,4.83
2018-07-03T22:03:11.384Z,5.40
2018-07-03T22:05:40.010Z,4.93
2018-07-03T22:08:07.863Z,68.87
2018-07-03T22:10:35.715Z,360.43
2018-07-03T22:13:03.738Z,355.17
2018-07-03T22:15:31.979Z,244.70
2018-07-03T22:17:59.834Z,365.65
2018-07-03T22:20:27.845Z,5.87
2018-07-03T22:22:55.702Z,4.73
2018-07-03T22:25:23.558Z,5.00
2018-07-03T22:27:51.511Z,5.03
2018-07-03T22:30:19.306Z,297.80
2018-07-03T22:32:47.164Z,309.50
2018-07-03T22:35:15.080Z,285.17
2018-07-03T22:37:44.064Z,233.97
2018-07-03T22:40:12.125Z,217.37
2018-07-03T22:42:40.017Z,258.50
2018-07-03T22:45:07.880Z,263.20
2018-07-03T22:47:35.911Z,257.13
2018-07-03T22:50:03.994Z,239.97
2018-07-03T22:52:31.808Z,233.97
2018-07-03T22:54:59.671Z,211.90
2018-07-03T22:57:27.499Z,212.77
2018-07-03T22:59:55.427Z,194.13
2018-07-03T23:02:23.331Z,202.10
2018-07-03T23:04:51.144Z,189.57
2018-07-03T23:07:18.961Z,180.40
2018-07-03T23:09:46.783Z,5.70
2018-07-03T23:12:19.196Z,4.50
2018-07-03T23:14:48.296Z,5.10
2018-07-03T23:17:16.451Z,140.10
2018-07-03T23:19:44.284Z,171.33
2018-07-03T23:22:12.587Z,161.27
2018-07-03T23:24:41.128Z,147.47
2018-07-03T23:27:08.975Z,143.07
2018-07-03T23:29:36.770Z,77.63
2018-07-03T23:32:04.601Z,4.33
2018-07-03T23:34:32.608Z,9.73
2018-07-03T23:37:00.768Z,129.20
2018-07-03T23:39:28.614Z,113.47
2018-07-03T23:41:56.451Z,5.40
2018-07-03T23:44:24.427Z,4.67
2018-07-03T23:46:57.926Z,4.67
2018-07-03T23:49:37.871Z,5.03
2018-07-03T23:52:17.152Z,5.13
2018-07-03T23:54:56.841Z,4.87
2018-07-03T23:57:36.588Z,62.20
